sensor_id;sensor_type;location;lat;lon;timestamp;P1;durP1;ratioP1;P2;durP2;ratioP2
32535;SDS011;18974;50.838;4.636;2024-03-29T00:00:45;8.73;;;1.77;;
32535;SDS011;18974;50.838;4.636;2024-03-29T00:03:11;8.88;;;1.10;;
32535;SDS011;18974;50.838;4.636;2024-03-29T00:05:37;8.73;;;1.40;;
32535;SDS011;18974;50.838;4.636;2024-03-29T00:08:03;7.53;;;1.08;;
32535;SDS011;18974;50.838;4.636;2024-03-29T00:10:29;5.38;;;1.17;;
32535;SDS011;18974;50.838;4.636;2024-03-29T00:12:55;6.32;;;1.38;;
32535;SDS011;18974;50.838;4.636;2024-03-29T00:15:21;6.20;;;0.90;;
32535;SDS011;18974;50.838;4.636;2024-03-29T00:17:46;3.42;;;1.20;;
32535;SDS011;18974;50.838;4.636;2024-03-29T00:20:12;4.72;;;1.27;;
32535;SDS011;18974;50.838;4.636;2024-03-29T00:22:38;4.38;;;1.08;;
32535;SDS011;18974;50.838;4.636;2024-03-29T00:25:04;6.55;;;1.20;;
32535;SDS011;18974;50.838;4.636;2024-03-29T00:27:30;6.55;;;1.17;;
32535;SDS011;18974;50.838;4.636;2024-03-29T00:29:56;7.32;;;1.15;;
32535;SDS011;18974;50.838;4.636;2024-03-29T00:32:21;3.83;;;1.02;;
32535;SDS011;18974;50.838;4.636;2024-03-29T00:34:51;5.60;;;1.25;;
32535;SDS011;18974;50.838;4.636;2024-03-29T00:37:17;7.22;;;1.38;;
32535;SDS011;18974;50.838;4.636;2024-03-29T00:39:43;8.75;;;1.45;;
32535;SDS011;18974;50.838;4.636;2024-03-29T00:42:10;3.75;;;0.77;;
32535;SDS011;18974;50.838;4.636;2024-03-29T00:44:38;8.45;;;1.23;;
32535;SDS011;18974;50.838;4.636;2024-03-29T00:47:04;8.98;;;1.42;;
32535;SDS011;18974;50.838;4.636;2024-03-29T00:49:30;5.07;;;1.30;;
32535;SDS011;18974;50.838;4.636;2024-03-29T00:51:56;10.18;;;1.08;;
32535;SDS011;18974;50.838;4.636;2024-03-29T00:54:21;6.22;;;1.08;;
32535;SDS011;18974;50.838;4.636;2024-03-29T00:56:50;11.35;;;1.48;;
32535;SDS011;18974;50.838;4.636;2024-03-29T00:59:16;5.28;;;1.00;;
32535;SDS011;18974;50.838;4.636;2024-03-29T01:01:42;8.20;;;1.02;;
32535;SDS011;18974;50.838;4.636;2024-03-29T01:04:08;3.03;;;1.30;;
32535;SDS011;18974;50.838;4.636;2024-03-29T01:06:34;3.42;;;1.00;;
32535;SDS011;18974;50.838;4.636;2024-03-29T01:09:00;4.05;;;1.20;;
32535;SDS011;18974;50.838;4.636;2024-03-29T01:11:26;2.40;;;0.90;;
32535;SDS011;18974;50.838;4.636;2024-03-29T01:13:52;6.18;;;1.50;;
32535;SDS011;18974;50.838;4.636;2024-03-29T01:16:18;5.75;;;1.23;;
32535;SDS011;18974;50.838;4.636;2024-03-29T01:18:44;4.55;;;1.20;;
32535;SDS011;18974;50.838;4.636;2024-03-29T01:21:11;6.97;;;1.48;;
32535;SDS011;18974;50.838;4.636;2024-03-29T01:23:37;8.95;;;1.13;;
32535;SDS011;18974;50.838;4.636;2024-03-29T01:26:04;8.38;;;1.50;;
32535;SDS011;18974;50.838;4.636;2024-03-29T01:28:30;5.75;;;1.30;;
32535;SDS011;18974;50.838;4.636;2024-03-29T01:30:56;6.63;;;1.40;;
32535;SDS011;18974;50.838;4.636;2024-03-29T01:33:23;4.28;;;1.02;;
32535;SDS011;18974;50.838;4.636;2024-03-29T01:35:49;6.28;;;1.15;;
32535;SDS011;18974;50.838;4.636;2024-03-29T01:38:15;4.85;;;1.17;;
32535;SDS011;18974;50.838;4.636;2024-03-29T01:40:41;5.85;;;1.10;;
32535;SDS011;18974;50.838;4.636;2024-03-29T01:43:07;2.97;;;0.68;;
32535;SDS011;18974;50.838;4.636;2024-03-29T01:45:34;5.90;;;1.10;;
32535;SDS011;18974;50.838;4.636;2024-03-29T01:48:03;4.18;;;0.80;;
32535;SDS011;18974;50.838;4.636;2024-03-29T01:50:30;5.57;;;0.80;;
32535;SDS011;18974;50.838;4.636;2024-03-29T01:52:56;3.20;;;0.82;;
32535;SDS011;18974;50.838;4.636;2024-03-29T01:55:22;3.30;;;0.80;;
32535;SDS011;18974;50.838;4.636;2024-03-29T01:57:49;2.80;;;0.73;;
32535;SDS011;18974;50.838;4.636;2024-03-29T02:00:15;5.13;;;1.10;;
32535;SDS011;18974;50.838;4.636;2024-03-29T02:02:41;4.18;;;0.60;;
32535;SDS011;18974;50.838;4.636;2024-03-29T02:05:07;4.15;;;0.70;;
32535;SDS011;18974;50.838;4.636;2024-03-29T02:07:33;2.28;;;0.93;;
32535;SDS011;18974;50.838;4.636;2024-03-29T02:10:00;2.50;;;0.73;;
32535;SDS011;18974;50.838;4.636;2024-03-29T02:12:26;5.80;;;0.70;;
32535;SDS011;18974;50.838;4.636;2024-03-29T02:14:52;4.47;;;0.80;;
32535;SDS011;18974;50.838;4.636;2024-03-29T02:17:18;4.10;;;1.02;;
32535;SDS011;18974;50.838;4.636;2024-03-29T02:19:43;4.25;;;0.95;;
32535;SDS011;18974;50.838;4.636;2024-03-29T02:22:09;3.75;;;0.80;;
32535;SDS011;18974;50.838;4.636;2024-03-29T02:24:40;2.90;;;0.88;;
32535;SDS011;18974;50.838;4.636;2024-03-29T02:27:05;4.63;;;1.08;;
32535;SDS011;18974;50.838;4.636;2024-03-29T02:29:31;4.88;;;0.90;;
32535;SDS011;18974;50.838;4.636;2024-03-29T02:31:57;5.60;;;0.82;;
32535;SDS011;18974;50.838;4.636;2024-03-29T02:34:22;5.20;;;1.17;;
32535;SDS011;18974;50.838;4.636;2024-03-29T02:36:48;7.43;;;0.95;;
32535;SDS011;18974;50.838;4.636;2024-03-29T02:39:14;6.35;;;1.00;;
32535;SDS011;18974;50.838;4.636;2024-03-29T02:41:40;6.70;;;1.20;;
32535;SDS011;18974;50.838;4.636;2024-03-29T02:44:05;2.72;;;0.90;;
32535;SDS011;18974;50.838;4.636;2024-03-29T02:46:31;4.53;;;0.93;;
32535;SDS011;18974;50.838;4.636;2024-03-29T02:48:57;4.38;;;0.95;;
32535;SDS011;18974;50.838;4.636;2024-03-29T02:51:22;4.65;;;1.10;;
32535;SDS011;18974;50.838;4.636;2024-03-29T02:53:48;3.28;;;0.75;;
32535;SDS011;18974;50.838;4.636;2024-03-29T02:56:14;5.43;;;1.25;;
32535;SDS011;18974;50.838;4.636;2024-03-29T02:58:43;5.13;;;1.20;;
32535;SDS011;18974;50.838;4.636;2024-03-29T03:01:09;5.03;;;0.90;;
32535;SDS011;18974;50.838;4.636;2024-03-29T03:03:35;6.32;;;1.40;;
32535;SDS011;18974;50.838;4.636;2024-03-29T03:06:01;7.30;;;1.00;;
32535;SDS011;18974;50.838;4.636;2024-03-29T03:08:27;3.38;;;1.20;;
32535;SDS011;18974;50.838;4.636;2024-03-29T03:11:13;5.28;;;1.08;;
32535;SDS011;18974;50.838;4.636;2024-03-29T03:13:38;3.25;;;1.10;;
32535;SDS011;18974;50.838;4.636;2024-03-29T03:16:04;3.50;;;0.90;;
32535;SDS011;18974;50.838;4.636;2024-03-29T03:18:30;6.30;;;1.10;;
32535;SDS011;18974;50.838;4.636;2024-03-29T03:20:56;4.22;;;1.10;;
32535;SDS011;18974;50.838;4.636;2024-03-29T03:23:25;5.97;;;1.27;;
32535;SDS011;18974;50.838;4.636;2024-03-29T03:25:58;9.60;;;1.33;;
32535;SDS011;18974;50.838;4.636;2024-03-29T03:28:25;5.45;;;1.20;;
32535;SDS011;18974;50.838;4.636;2024-03-29T03:30:51;6.18;;;1.30;;
32535;SDS011;18974;50.838;4.636;2024-03-29T03:33:18;4.70;;;1.02;;
32535;SDS011;18974;50.838;4.636;2024-03-29T03:35:44;7.50;;;0.98;;
32535;SDS011;18974;50.838;4.636;2024-03-29T03:38:10;3.80;;;1.10;;
32535;SDS011;18974;50.838;4.636;2024-03-29T03:40:36;8.63;;;1.20;;
32535;SDS011;18974;50.838;4.636;2024-03-29T03:43:03;6.30;;;1.40;;
32535;SDS011;18974;50.838;4.636;2024-03-29T03:45:37;7.05;;;1.30;;
32535;SDS011;18974;50.838;4.636;2024-03-29T03:48:04;7.15;;;1.20;;
32535;SDS011;18974;50.838;4.636;2024-03-29T03:50:31;7.47;;;1.20;;
32535;SDS011;18974;50.838;4.636;2024-03-29T03:52:57;8.05;;;1.42;;
32535;SDS011;18974;50.838;4.636;2024-03-29T03:55:23;6.10;;;1.83;;
32535;SDS011;18974;50.838;4.636;2024-03-29T03:57:49;4.47;;;1.15;;
32535;SDS011;18974;50.838;4.636;2024-03-29T04:00:17;7.50;;;1.80;;
32535;SDS011;18974;50.838;4.636;2024-03-29T04:02:51;11.88;;;1.90;;
32535;SDS011;18974;50.838;4.636;2024-03-29T04:05:17;4.88;;;1.27;;
32535;SDS011;18974;50.838;4.636;2024-03-29T04:07:44;2.35;;;1.10;;
32535;SDS011;18974;50.838;4.636;2024-03-29T04:10:10;5.07;;;1.23;;
32535;SDS011;18974;50.838;4.636;2024-03-29T04:12:36;7.07;;;1.27;;
32535;SDS011;18974;50.838;4.636;2024-03-29T04:15:02;3.78;;;1.00;;
32535;SDS011;18974;50.838;4.636;2024-03-29T04:17:28;6.38;;;1.10;;
32535;SDS011;18974;50.838;4.636;2024-03-29T04:19:57;4.57;;;1.13;;
32535;SDS011;18974;50.838;4.636;2024-03-29T04:22:24;7.63;;;1.20;;
32535;SDS011;18974;50.838;4.636;2024-03-29T04:24:50;7.00;;;1.13;;
32535;SDS011;18974;50.838;4.636;2024-03-29T04:27:16;5.00;;;0.82;;
32535;SDS011;18974;50.838;4.636;2024-03-29T04:29:42;4.03;;;0.95;;
32535;SDS011;18974;50.838;4.636;2024-03-29T04:32:07;6.50;;;1.08;;
32535;SDS011;18974;50.838;4.636;2024-03-29T04:34:33;6.88;;;1.20;;
32535;SDS011;18974;50.838;4.636;2024-03-29T04:36:59;6.75;;;1.20;;
32535;SDS011;18974;50.838;4.636;2024-03-29T04:39:25;3.78;;;1.30;;
32535;SDS011;18974;50.838;4.636;2024-03-29T04:41:50;3.15;;;1.00;;
32535;SDS011;18974;50.838;4.636;2024-03-29T04:44:28;6.32;;;1.13;;
32535;SDS011;18974;50.838;4.636;2024-03-29T04:46:54;3.97;;;1.00;;
32535;SDS011;18974;50.838;4.636;2024-03-29T04:49:21;4.97;;;1.02;;
32535;SDS011;18974;50.838;4.636;2024-03-29T04:54:21;4.43;;;1.17;;
32535;SDS011;18974;50.838;4.636;2024-03-29T04:56:46;3.00;;;0.90;;
32535;SDS011;18974;50.838;4.636;2024-03-29T04:59:12;7.25;;;1.20;;
32535;SDS011;18974;50.838;4.636;2024-03-29T05:01:41;2.85;;;1.27;;
32535;SDS011;18974;50.838;4.636;2024-03-29T05:04:09;6.20;;;0.90;;
32535;SDS011;18974;50.838;4.636;2024-03-29T05:06:35;1.70;;;0.88;;
32535;SDS011;18974;50.838;4.636;2024-03-29T05:09:00;4.95;;;1.33;;
32535;SDS011;18974;50.838;4.636;2024-03-29T05:11:26;5.68;;;1.10;;
32535;SDS011;18974;50.838;4.636;2024-03-29T05:13:52;3.90;;;1.00;;
32535;SDS011;18974;50.838;4.636;2024-03-29T05:16:18;3.83;;;0.82;;
32535;SDS011;18974;50.838;4.636;2024-03-29T05:18:43;3.58;;;1.05;;
32535;SDS011;18974;50.838;4.636;2024-03-29T05:21:09;3.55;;;0.95;;
32535;SDS011;18974;50.838;4.636;2024-03-29T05:23:34;4.22;;;1.48;;
32535;SDS011;18974;50.838;4.636;2024-03-29T05:26:00;2.70;;;1.00;;
32535;SDS011;18974;50.838;4.636;2024-03-29T05:28:26;1.75;;;0.90;;
32535;SDS011;18974;50.838;4.636;2024-03-29T05:30:52;5.43;;;1.00;;
32535;SDS011;18974;50.838;4.636;2024-03-29T05:33:18;4.40;;;1.13;;
32535;SDS011;18974;50.838;4.636;2024-03-29T05:35:43;4.05;;;1.27;;
32535;SDS011;18974;50.838;4.636;2024-03-29T05:38:09;6.05;;;1.00;;
32535;SDS011;18974;50.838;4.636;2024-03-29T05:40:35;3.60;;;1.13;;
32535;SDS011;18974;50.838;4.636;2024-03-29T05:43:02;6.82;;;1.25;;
32535;SDS011;18974;50.838;4.636;2024-03-29T05:45:29;4.68;;;1.00;;
32535;SDS011;18974;50.838;4.636;2024-03-29T05:47:56;2.80;;;0.80;;
32535;SDS011;18974;50.838;4.636;2024-03-29T05:50:23;6.22;;;1.33;;
32535;SDS011;18974;50.838;4.636;2024-03-29T05:52:49;4.90;;;1.40;;
32535;SDS011;18974;50.838;4.636;2024-03-29T05:55:15;4.63;;;1.20;;
32535;SDS011;18974;50.838;4.636;2024-03-29T05:57:41;5.82;;;1.48;;
32535;SDS011;18974;50.838;4.636;2024-03-29T06:00:10;4.10;;;1.00;;
32535;SDS011;18974;50.838;4.636;2024-03-29T06:02:36;5.55;;;1.13;;
32535;SDS011;18974;50.838;4.636;2024-03-29T06:05:02;6.20;;;1.55;;
32535;SDS011;18974;50.838;4.636;2024-03-29T06:07:29;3.92;;;1.40;;
32535;SDS011;18974;50.838;4.636;2024-03-29T06:09:58;7.03;;;1.75;;
32535;SDS011;18974;50.838;4.636;2024-03-29T06:12:29;3.00;;;1.50;;
32535;SDS011;18974;50.838;4.636;2024-03-29T06:14:58;3.63;;;1.33;;
32535;SDS011;18974;50.838;4.636;2024-03-29T06:17:42;5.05;;;1.90;;
32535;SDS011;18974;50.838;4.636;2024-03-29T06:20:09;4.95;;;1.67;;
32535;SDS011;18974;50.838;4.636;2024-03-29T06:22:35;5.78;;;1.73;;
32535;SDS011;18974;50.838;4.636;2024-03-29T06:25:00;7.20;;;1.75;;
32535;SDS011;18974;50.838;4.636;2024-03-29T06:27:32;6.22;;;1.80;;
32535;SDS011;18974;50.838;4.636;2024-03-29T06:30:02;8.23;;;1.92;;
32535;SDS011;18974;50.838;4.636;2024-03-29T06:32:29;7.47;;;2.20;;
32535;SDS011;18974;50.838;4.636;2024-03-29T06:34:55;5.93;;;1.83;;
32535;SDS011;18974;50.838;4.636;2024-03-29T06:37:21;6.32;;;1.90;;
32535;SDS011;18974;50.838;4.636;2024-03-29T06:39:47;5.93;;;1.85;;
32535;SDS011;18974;50.838;4.636;2024-03-29T06:42:13;4.47;;;1.50;;
32535;SDS011;18974;50.838;4.636;2024-03-29T06:44:39;5.75;;;1.50;;
32535;SDS011;18974;50.838;4.636;2024-03-29T06:47:05;4.75;;;1.30;;
32535;SDS011;18974;50.838;4.636;2024-03-29T06:49:32;2.40;;;1.10;;
32535;SDS011;18974;50.838;4.636;2024-03-29T06:51:58;4.68;;;1.42;;
32535;SDS011;18974;50.838;4.636;2024-03-29T06:54:26;5.82;;;1.45;;
32535;SDS011;18974;50.838;4.636;2024-03-29T06:56:52;3.35;;;1.48;;
32535;SDS011;18974;50.838;4.636;2024-03-29T06:59:19;3.20;;;1.55;;
32535;SDS011;18974;50.838;4.636;2024-03-29T07:01:44;5.10;;;1.60;;
32535;SDS011;18974;50.838;4.636;2024-03-29T07:04:12;7.93;;;1.67;;
32535;SDS011;18974;50.838;4.636;2024-03-29T07:06:38;5.47;;;1.55;;
32535;SDS011;18974;50.838;4.636;2024-03-29T07:09:04;7.88;;;2.40;;
32535;SDS011;18974;50.838;4.636;2024-03-29T07:11:31;7.15;;;1.83;;
32535;SDS011;18974;50.838;4.636;2024-03-29T07:13:56;6.15;;;1.70;;
32535;SDS011;18974;50.838;4.636;2024-03-29T07:16:22;3.83;;;2.00;;
32535;SDS011;18974;50.838;4.636;2024-03-29T07:18:48;6.75;;;1.67;;
32535;SDS011;18974;50.838;4.636;2024-03-29T07:21:13;5.90;;;1.73;;
32535;SDS011;18974;50.838;4.636;2024-03-29T07:23:39;6.55;;;2.05;;
32535;SDS011;18974;50.838;4.636;2024-03-29T07:26:05;7.93;;;1.95;;
32535;SDS011;18974;50.838;4.636;2024-03-29T07:28:31;5.35;;;1.85;;
32535;SDS011;18974;50.838;4.636;2024-03-29T07:30:57;7.38;;;1.70;;
32535;SDS011;18974;50.838;4.636;2024-03-29T07:33:29;5.80;;;1.60;;
32535;SDS011;18974;50.838;4.636;2024-03-29T07:35:55;5.68;;;1.55;;
32535;SDS011;18974;50.838;4.636;2024-03-29T07:38:21;5.82;;;1.88;;
32535;SDS011;18974;50.838;4.636;2024-03-29T07:40:48;5.15;;;1.50;;
32535;SDS011;18974;50.838;4.636;2024-03-29T07:43:17;4.63;;;1.77;;
32535;SDS011;18974;50.838;4.636;2024-03-29T07:45:44;17.38;;;2.45;;
32535;SDS011;18974;50.838;4.636;2024-03-29T07:48:16;6.13;;;1.92;;
32535;SDS011;18974;50.838;4.636;2024-03-29T07:50:43;4.57;;;1.70;;
32535;SDS011;18974;50.838;4.636;2024-03-29T07:53:10;5.95;;;2.03;;
32535;SDS011;18974;50.838;4.636;2024-03-29T07:55:37;7.22;;;1.92;;
32535;SDS011;18974;50.838;4.636;2024-03-29T07:58:03;6.47;;;1.95;;
32535;SDS011;18974;50.838;4.636;2024-03-29T08:00:34;8.82;;;1.60;;
32535;SDS011;18974;50.838;4.636;2024-03-29T08:03:04;6.80;;;1.80;;
32535;SDS011;18974;50.838;4.636;2024-03-29T08:05:29;6.75;;;2.05;;
32535;SDS011;18974;50.838;4.636;2024-03-29T08:07:55;3.53;;;1.77;;
32535;SDS011;18974;50.838;4.636;2024-03-29T08:10:21;5.68;;;2.03;;
32535;SDS011;18974;50.838;4.636;2024-03-29T08:12:46;5.38;;;2.20;;
32535;SDS011;18974;50.838;4.636;2024-03-29T08:15:13;5.72;;;2.03;;
32535;SDS011;18974;50.838;4.636;2024-03-29T08:17:39;9.95;;;2.70;;
32535;SDS011;18974;50.838;4.636;2024-03-29T08:20:05;7.32;;;2.17;;
32535;SDS011;18974;50.838;4.636;2024-03-29T08:22:31;8.02;;;2.85;;
32535;SDS011;18974;50.838;4.636;2024-03-29T08:24:59;9.30;;;2.25;;
32535;SDS011;18974;50.838;4.636;2024-03-29T08:27:26;9.27;;;2.10;;
32535;SDS011;18974;50.838;4.636;2024-03-29T08:29:52;4.85;;;2.38;;
32535;SDS011;18974;50.838;4.636;2024-03-29T08:32:18;5.07;;;2.00;;
32535;SDS011;18974;50.838;4.636;2024-03-29T08:34:43;5.35;;;2.40;;
32535;SDS011;18974;50.838;4.636;2024-03-29T08:37:09;3.45;;;1.50;;
32535;SDS011;18974;50.838;4.636;2024-03-29T08:39:35;5.97;;;1.92;;
32535;SDS011;18974;50.838;4.636;2024-03-29T08:42:02;7.47;;;2.03;;
32535;SDS011;18974;50.838;4.636;2024-03-29T08:44:31;2.75;;;1.63;;
32535;SDS011;18974;50.838;4.636;2024-03-29T08:46:58;6.55;;;1.98;;
32535;SDS011;18974;50.838;4.636;2024-03-29T08:49:26;4.80;;;1.70;;
32535;SDS011;18974;50.838;4.636;2024-03-29T08:51:58;4.72;;;2.15;;
32535;SDS011;18974;50.838;4.636;2024-03-29T08:54:25;3.92;;;1.60;;
32535;SDS011;18974;50.838;4.636;2024-03-29T08:56:53;4.55;;;1.77;;
32535;SDS011;18974;50.838;4.636;2024-03-29T08:59:18;4.93;;;1.73;;
32535;SDS011;18974;50.838;4.636;2024-03-29T09:01:44;2.47;;;1.38;;
32535;SDS011;18974;50.838;4.636;2024-03-29T09:04:11;2.40;;;1.45;;
32535;SDS011;18974;50.838;4.636;2024-03-29T09:06:37;4.78;;;1.80;;
32535;SDS011;18974;50.838;4.636;2024-03-29T09:09:06;3.15;;;1.30;;
32535;SDS011;18974;50.838;4.636;2024-03-29T09:11:32;8.20;;;1.85;;
32535;SDS011;18974;50.838;4.636;2024-03-29T09:13:58;1.98;;;1.00;;
32535;SDS011;18974;50.838;4.636;2024-03-29T09:16:27;1.77;;;1.17;;
32535;SDS011;18974;50.838;4.636;2024-03-29T09:18:55;3.35;;;1.40;;
32535;SDS011;18974;50.838;4.636;2024-03-29T09:21:21;5.35;;;1.23;;
32535;SDS011;18974;50.838;4.636;2024-03-29T09:23:46;2.25;;;1.17;;
32535;SDS011;18974;50.838;4.636;2024-03-29T09:26:14;2.35;;;0.82;;
32535;SDS011;18974;50.838;4.636;2024-03-29T09:28:40;2.45;;;0.85;;
32535;SDS011;18974;50.838;4.636;2024-03-29T09:31:06;9.02;;;1.25;;
32535;SDS011;18974;50.838;4.636;2024-03-29T09:33:32;3.15;;;1.35;;
32535;SDS011;18974;50.838;4.636;2024-03-29T09:35:58;1.33;;;0.85;;
32535;SDS011;18974;50.838;4.636;2024-03-29T09:38:27;1.52;;;1.02;;
32535;SDS011;18974;50.838;4.636;2024-03-29T09:43:43;1.08;;;0.70;;
32535;SDS011;18974;50.838;4.636;2024-03-29T09:46:10;3.17;;;0.85;;
32535;SDS011;18974;50.838;4.636;2024-03-29T09:48:38;3.17;;;1.17;;
32535;SDS011;18974;50.838;4.636;2024-03-29T09:51:10;2.80;;;0.95;;
32535;SDS011;18974;50.838;4.636;2024-03-29T09:53:40;1.42;;;0.80;;
32535;SDS011;18974;50.838;4.636;2024-03-29T09:56:07;2.88;;;0.80;;
32535;SDS011;18974;50.838;4.636;2024-03-29T09:58:37;2.20;;;0.90;;
32535;SDS011;18974;50.838;4.636;2024-03-29T10:01:04;3.13;;;1.52;;
32535;SDS011;18974;50.838;4.636;2024-03-29T10:03:32;5.63;;;1.60;;
32535;SDS011;18974;50.838;4.636;2024-03-29T10:06:04;3.72;;;1.33;;
32535;SDS011;18974;50.838;4.636;2024-03-29T10:08:33;3.05;;;1.10;;
32535;SDS011;18974;50.838;4.636;2024-03-29T10:10:59;2.13;;;1.15;;
32535;SDS011;18974;50.838;4.636;2024-03-29T10:13:25;2.35;;;0.80;;
32535;SDS011;18974;50.838;4.636;2024-03-29T10:15:54;2.45;;;1.00;;
32535;SDS011;18974;50.838;4.636;2024-03-29T10:18:25;3.78;;;1.30;;
32535;SDS011;18974;50.838;4.636;2024-03-29T10:21:05;2.63;;;0.93;;
32535;SDS011;18974;50.838;4.636;2024-03-29T10:23:35;1.38;;;0.93;;
32535;SDS011;18974;50.838;4.636;2024-03-29T10:26:01;7.57;;;1.92;;
32535;SDS011;18974;50.838;4.636;2024-03-29T10:28:30;2.03;;;0.90;;
32535;SDS011;18974;50.838;4.636;2024-03-29T10:31:00;3.85;;;1.23;;
32535;SDS011;18974;50.838;4.636;2024-03-29T10:33:29;3.13;;;1.20;;
32535;SDS011;18974;50.838;4.636;2024-03-29T10:35:56;2.40;;;0.93;;
32535;SDS011;18974;50.838;4.636;2024-03-29T10:38:24;2.15;;;1.05;;
32535;SDS011;18974;50.838;4.636;2024-03-29T10:40:51;1.48;;;0.85;;
32535;SDS011;18974;50.838;4.636;2024-03-29T10:43:17;1.88;;;0.80;;
32535;SDS011;18974;50.838;4.636;2024-03-29T10:45:44;1.08;;;0.70;;
32535;SDS011;18974;50.838;4.636;2024-03-29T10:48:16;1.73;;;0.73;;
32535;SDS011;18974;50.838;4.636;2024-03-29T10:50:42;4.90;;;0.85;;
32535;SDS011;18974;50.838;4.636;2024-03-29T10:53:10;2.05;;;0.63;;
32535;SDS011;18974;50.838;4.636;2024-03-29T10:55:38;3.95;;;0.73;;
32535;SDS011;18974;50.838;4.636;2024-03-29T10:58:04;2.22;;;1.00;;
32535;SDS011;18974;50.838;4.636;2024-03-29T11:00:36;1.83;;;0.70;;
32535;SDS011;18974;50.838;4.636;2024-03-29T11:03:13;1.35;;;0.52;;
32535;SDS011;18974;50.838;4.636;2024-03-29T11:05:57;1.75;;;0.60;;
32535;SDS011;18974;50.838;4.636;2024-03-29T11:08:34;0.40;;;0.40;;
32535;SDS011;18974;50.838;4.636;2024-03-29T11:11:04;2.13;;;0.68;;
32535;SDS011;18974;50.838;4.636;2024-03-29T11:16:10;1.40;;;0.57;;
32535;SDS011;18974;50.838;4.636;2024-03-29T11:18:36;1.35;;;0.63;;
32535;SDS011;18974;50.838;4.636;2024-03-29T11:21:03;3.28;;;0.70;;
32535;SDS011;18974;50.838;4.636;2024-03-29T11:23:31;0.52;;;0.50;;
32535;SDS011;18974;50.838;4.636;2024-03-29T11:25:57;2.83;;;0.85;;
32535;SDS011;18974;50.838;4.636;2024-03-29T11:28:26;2.00;;;0.55;;
32535;SDS011;18974;50.838;4.636;2024-03-29T11:30:56;1.85;;;0.52;;
32535;SDS011;18974;50.838;4.636;2024-03-29T11:36:17;1.67;;;0.60;;
32535;SDS011;18974;50.838;4.636;2024-03-29T11:38:47;0.85;;;0.68;;
32535;SDS011;18974;50.838;4.636;2024-03-29T11:41:18;2.40;;;0.80;;
32535;SDS011;18974;50.838;4.636;2024-03-29T11:43:43;1.55;;;0.80;;
32535;SDS011;18974;50.838;4.636;2024-03-29T11:46:13;3.67;;;1.08;;
32535;SDS011;18974;50.838;4.636;2024-03-29T11:48:40;1.48;;;0.98;;
32535;SDS011;18974;50.838;4.636;2024-03-29T11:51:07;3.78;;;1.02;;
32535;SDS011;18974;50.838;4.636;2024-03-29T11:53:34;3.25;;;0.90;;
32535;SDS011;18974;50.838;4.636;2024-03-29T11:56:01;2.95;;;0.70;;
32535;SDS011;18974;50.838;4.636;2024-03-29T11:58:28;1.75;;;0.75;;
32535;SDS011;18974;50.838;4.636;2024-03-29T12:00:56;2.75;;;0.80;;
32535;SDS011;18974;50.838;4.636;2024-03-29T12:03:23;1.88;;;0.70;;
32535;SDS011;18974;50.838;4.636;2024-03-29T12:05:50;2.28;;;0.50;;
32535;SDS011;18974;50.838;4.636;2024-03-29T12:08:19;1.48;;;0.50;;
32535;SDS011;18974;50.838;4.636;2024-03-29T12:10:45;1.65;;;0.40;;
32535;SDS011;18974;50.838;4.636;2024-03-29T12:13:11;1.33;;;0.45;;
32535;SDS011;18974;50.838;4.636;2024-03-29T12:15:37;2.45;;;0.55;;
32535;SDS011;18974;50.838;4.636;2024-03-29T12:18:05;1.35;;;0.55;;
32535;SDS011;18974;50.838;4.636;2024-03-29T12:20:32;1.17;;;0.43;;
32535;SDS011;18974;50.838;4.636;2024-03-29T12:22:59;1.58;;;0.70;;
32535;SDS011;18974;50.838;4.636;2024-03-29T12:25:26;0.82;;;0.43;;
32535;SDS011;18974;50.838;4.636;2024-03-29T12:27:53;1.60;;;0.50;;
32535;SDS011;18974;50.838;4.636;2024-03-29T12:30:19;4.60;;;0.70;;
32535;SDS011;18974;50.838;4.636;2024-03-29T12:32:45;1.48;;;0.50;;
32535;SDS011;18974;50.838;4.636;2024-03-29T12:35:11;0.55;;;0.40;;
32535;SDS011;18974;50.838;4.636;2024-03-29T12:37:38;0.55;;;0.43;;
32535;SDS011;18974;50.838;4.636;2024-03-29T12:40:16;5.03;;;0.80;;
32535;SDS011;18974;50.838;4.636;2024-03-29T12:42:49;1.40;;;0.57;;
32535;SDS011;18974;50.838;4.636;2024-03-29T12:45:16;1.27;;;0.40;;
32535;SDS011;18974;50.838;4.636;2024-03-29T12:47:48;2.15;;;0.40;;
32535;SDS011;18974;50.838;4.636;2024-03-29T12:50:23;3.75;;;0.43;;
32535;SDS011;18974;50.838;4.636;2024-03-29T12:52:54;0.93;;;0.47;;
32535;SDS011;18974;50.838;4.636;2024-03-29T12:55:22;1.75;;;0.77;;
32535;SDS011;18974;50.838;4.636;2024-03-29T12:57:49;2.15;;;0.50;;
32535;SDS011;18974;50.838;4.636;2024-03-29T13:00:18;1.63;;;0.47;;
32535;SDS011;18974;50.838;4.636;2024-03-29T13:02:44;1.38;;;0.55;;
32535;SDS011;18974;50.838;4.636;2024-03-29T13:05:10;3.53;;;0.60;;
32535;SDS011;18974;50.838;4.636;2024-03-29T13:07:36;1.40;;;0.52;;
32535;SDS011;18974;50.838;4.636;2024-03-29T13:10:02;1.65;;;0.60;;
32535;SDS011;18974;50.838;4.636;2024-03-29T13:12:31;1.17;;;0.60;;
32535;SDS011;18974;50.838;4.636;2024-03-29T13:15:02;0.85;;;0.50;;
32535;SDS011;18974;50.838;4.636;2024-03-29T13:17:39;2.17;;;0.60;;
32535;SDS011;18974;50.838;4.636;2024-03-29T13:20:05;1.13;;;0.50;;
32535;SDS011;18974;50.838;4.636;2024-03-29T13:22:31;2.13;;;0.50;;
32535;SDS011;18974;50.838;4.636;2024-03-29T13:24:56;4.25;;;0.60;;
32535;SDS011;18974;50.838;4.636;2024-03-29T13:27:22;2.85;;;0.47;;
32535;SDS011;18974;50.838;4.636;2024-03-29T13:29:47;1.08;;;0.50;;
32535;SDS011;18974;50.838;4.636;2024-03-29T13:32:14;2.05;;;0.70;;
32535;SDS011;18974;50.838;4.636;2024-03-29T13:34:40;2.05;;;0.52;;
32535;SDS011;18974;50.838;4.636;2024-03-29T13:37:05;3.70;;;0.85;;
32535;SDS011;18974;50.838;4.636;2024-03-29T13:39:31;1.38;;;0.60;;
32535;SDS011;18974;50.838;4.636;2024-03-29T13:41:57;2.30;;;0.52;;
32535;SDS011;18974;50.838;4.636;2024-03-29T13:44:23;2.72;;;0.60;;
32535;SDS011;18974;50.838;4.636;2024-03-29T13:46:49;2.30;;;0.57;;
32535;SDS011;18974;50.838;4.636;2024-03-29T13:49:16;1.10;;;0.50;;
32535;SDS011;18974;50.838;4.636;2024-03-29T13:51:45;1.92;;;0.70;;
32535;SDS011;18974;50.838;4.636;2024-03-29T13:54:11;6.43;;;0.80;;
32535;SDS011;18974;50.838;4.636;2024-03-29T13:56:37;3.38;;;0.60;;
32535;SDS011;18974;50.838;4.636;2024-03-29T13:59:03;2.03;;;0.63;;
32535;SDS011;18974;50.838;4.636;2024-03-29T14:01:28;2.20;;;0.70;;
32535;SDS011;18974;50.838;4.636;2024-03-29T14:03:54;2.10;;;0.52;;
32535;SDS011;18974;50.838;4.636;2024-03-29T14:06:20;3.03;;;0.70;;
32535;SDS011;18974;50.838;4.636;2024-03-29T14:08:47;3.05;;;0.80;;
32535;SDS011;18974;50.838;4.636;2024-03-29T14:11:12;2.63;;;1.00;;
32535;SDS011;18974;50.838;4.636;2024-03-29T14:13:39;2.47;;;0.70;;
32535;SDS011;18974;50.838;4.636;2024-03-29T14:16:05;3.60;;;0.75;;
32535;SDS011;18974;50.838;4.636;2024-03-29T14:18:31;1.10;;;0.55;;
32535;SDS011;18974;50.838;4.636;2024-03-29T14:20:57;0.77;;;0.50;;
32535;SDS011;18974;50.838;4.636;2024-03-29T14:23:23;2.15;;;0.88;;
32535;SDS011;18974;50.838;4.636;2024-03-29T14:25:50;1.02;;;0.68;;
32535;SDS011;18974;50.838;4.636;2024-03-29T14:28:16;1.08;;;0.60;;
32535;SDS011;18974;50.838;4.636;2024-03-29T14:30:42;3.47;;;0.70;;
32535;SDS011;18974;50.838;4.636;2024-03-29T14:33:07;1.15;;;0.77;;
32535;SDS011;18974;50.838;4.636;2024-03-29T14:35:36;3.60;;;1.05;;
32535;SDS011;18974;50.838;4.636;2024-03-29T14:38:02;2.25;;;0.88;;
32535;SDS011;18974;50.838;4.636;2024-03-29T14:40:28;2.95;;;1.00;;
32535;SDS011;18974;50.838;4.636;2024-03-29T14:42:53;5.35;;;1.00;;
32535;SDS011;18974;50.838;4.636;2024-03-29T14:45:19;1.42;;;0.63;;
32535;SDS011;18974;50.838;4.636;2024-03-29T14:47:45;3.10;;;0.80;;
32535;SDS011;18974;50.838;4.636;2024-03-29T14:50:11;2.83;;;0.90;;
32535;SDS011;18974;50.838;4.636;2024-03-29T14:52:37;5.32;;;1.10;;
32535;SDS011;18974;50.838;4.636;2024-03-29T14:55:04;3.92;;;1.05;;
32535;SDS011;18974;50.838;4.636;2024-03-29T14:57:30;1.80;;;0.88;;